createdAt,value
2023-04-02T00:03:59.542Z,73.14
2023-04-02T00:09:30.859Z,73.61
2023-04-02T00:14:54.961Z,74.17
2023-04-02T00:20:20.009Z,73.74
2023-04-02T00:25:45.380Z,72.99
2023-04-02T00:31:10.579Z,73.78
2023-04-02T00:36:34.726Z,73.44
2023-04-02T00:42:07.608Z,74.10
2023-04-02T00:47:37.191Z,73.95
2023-04-02T00:53:00.465Z,73.89
2023-04-02T00:58:27.643Z,73.54
2023-04-02T01:03:58.370Z,73.56
2023-04-02T01:09:48.345Z,73.50
2023-04-02T01:15:30.415Z,73.00
2023-04-02T01:21:15.917Z,72.61
2023-04-02T01:26:48.060Z,72.33
2023-04-02T01:32:13.897Z,72.68
2023-04-02T01:37:49.561Z,72.78
2023-04-02T01:43:34.394Z,72.77
2023-04-02T01:48:57.676Z,72.53
2023-04-02T01:54:20.982Z,71.82
2023-04-02T01:59:42.991Z,72.17
2023-04-02T02:05:06.475Z,72.33
2023-04-02T02:10:38.505Z,71.91
2023-04-02T02:16:01.533Z,71.76
2023-04-02T02:21:43.838Z,71.42
2023-04-02T02:27:23.380Z,72.25
2023-04-02T02:33:25.474Z,71.80
2023-04-02T02:39:18.824Z,71.89
2023-04-02T02:44:44.728Z,72.26
2023-04-02T02:50:13.910Z,71.60
2023-04-02T02:55:38.099Z,72.26
2023-04-02T03:01:00.440Z,72.80
2023-04-02T03:06:22.577Z,72.35
2023-04-02T03:11:52.324Z,72.46
2023-04-02T03:17:33.799Z,72.84
2023-04-02T03:23:03.808Z,73.49
2023-04-02T03:28:33.011Z,73.71
2023-04-02T03:33:59.197Z,73.64
2023-04-02T03:39:37.643Z,73.91
2023-04-02T03:45:15.295Z,75.61
2023-04-02T03:50:40.195Z,75.04
2023-04-02T03:56:02.419Z,75.22
2023-04-02T04:01:35.301Z,74.83
2023-04-02T04:06:58.532Z,75.42
2023-04-02T04:12:46.895Z,74.82
2023-04-02T04:18:34.628Z,75.02
2023-04-02T04:24:05.795Z,75.84
2023-04-02T04:29:30.510Z,75.03
2023-04-02T04:34:57.516Z,75.58
2023-04-02T04:40:31.833Z,75.64
2023-04-02T04:46:03.380Z,74.85
2023-04-02T04:51:52.042Z,75.52
2023-04-02T04:57:29.256Z,76.18
2023-04-02T05:03:06.009Z,75.24
2023-04-02T05:08:33.019Z,76.98
2023-04-02T05:14:01.236Z,75.64
2023-04-02T05:19:31.480Z,75.65
2023-04-02T05:25:18.167Z,75.93
2023-04-02T05:30:49.527Z,76.29
2023-04-02T05:36:18.289Z,77.25
2023-04-02T05:42:00.158Z,77.97
2023-04-02T05:47:27.418Z,79.70
2023-04-02T05:52:55.324Z,78.87
2023-04-02T05:58:35.451Z,79.60
2023-04-02T06:04:52.306Z,79.04
2023-04-02T06:10:23.487Z,79.25
2023-04-02T06:15:47.864Z,79.47
2023-04-02T06:21:14.229Z,79.05
2023-04-02T06:26:48.302Z,77.72
2023-04-02T06:32:12.552Z,78.25
2023-04-02T06:37:41.003Z,78.65
2023-04-02T06:43:21.059Z,78.29
2023-04-02T06:48:44.743Z,78.20
2023-04-02T06:54:13.106Z,78.16
2023-04-02T06:59:34.841Z,76.03
2023-04-02T07:05:09.032Z,76.43
2023-04-02T07:10:31.059Z,74.86
2023-04-02T07:15:54.962Z,74.86
2023-04-02T07:21:16.961Z,75.26
2023-04-02T07:26:38.932Z,75.26
2023-04-02T07:32:00.766Z,74.75
2023-04-02T07:37:22.458Z,74.87
2023-04-02T07:42:44.937Z,74.52
2023-04-02T07:48:08.347Z,73.65
2023-04-02T07:53:37.705Z,73.45
2023-04-02T07:58:59.438Z,73.89
2023-04-02T08:04:22.394Z,74.53
2023-04-02T08:09:44.442Z,75.69
2023-04-02T08:15:06.982Z,75.45
2023-04-02T08:20:28.741Z,76.02
2023-04-02T08:25:50.924Z,76.10
2023-04-02T08:31:13.480Z,76.06
2023-04-02T08:36:37.912Z,76.30
2023-04-02T08:42:07.071Z,75.83
2023-04-02T08:47:32.494Z,75.55
2023-04-02T08:52:54.590Z,74.63
2023-04-02T08:58:39.172Z,74.83
2023-04-02T09:04:03.319Z,74.29
2023-04-02T09:09:25.710Z,74.53
2023-04-02T09:15:06.004Z,75.65
2023-04-02T09:20:29.297Z,73.91
2023-04-02T09:26:03.525Z,74.77
2023-04-02T09:31:39.009Z,74.27
2023-04-02T09:37:19.433Z,73.86
2023-04-02T09:42:41.273Z,73.54
2023-04-02T09:48:15.452Z,74.31
2023-04-02T09:53:43.208Z,74.67
2023-04-02T09:59:15.307Z,73.73
2023-04-02T10:04:45.305Z,74.34
2023-04-02T10:10:29.252Z,74.26
2023-04-02T10:16:24.951Z,74.28
2023-04-02T10:21:52.249Z,73.99
2023-04-02T10:27:41.470Z,73.69
2023-04-02T10:33:17.317Z,73.36
2023-04-02T10:38:44.243Z,72.94
2023-04-02T10:44:21.902Z,72.85
2023-04-02T10:49:55.632Z,73.36
2023-04-02T10:55:25.409Z,72.73
2023-04-02T11:00:47.629Z,73.03
2023-04-02T11:06:27.081Z,73.27
2023-04-02T11:11:54.743Z,73.61
2023-04-02T11:17:17.908Z,72.35
2023-04-02T11:22:39.706Z,72.02
2023-04-02T11:28:27.998Z,70.88
2023-04-02T11:33:50.202Z,71.36
2023-04-02T11:39:17.484Z,69.74
2023-04-02T11:44:39.605Z,69.68
2023-04-02T11:50:02.606Z,68.03
2023-04-02T11:55:33.658Z,68.18
2023-04-02T12:01:33.174Z,68.03
2023-04-02T12:07:10.789Z,66.52
2023-04-02T12:12:40.380Z,65.76
2023-04-02T12:18:17.376Z,66.43
2023-04-02T12:23:39.287Z,66.65
2023-04-02T12:29:23.484Z,66.94
2023-04-02T12:34:46.456Z,67.09
2023-04-02T12:40:18.268Z,66.67
2023-04-02T12:45:40.236Z,65.93
2023-04-02T12:51:03.596Z,66.32
2023-04-02T12:56:25.774Z,65.06
2023-04-02T13:01:59.094Z,64.58
2023-04-02T13:07:26.255Z,65.25
2023-04-02T13:12:48.006Z,65.91
2023-04-02T13:18:12.686Z,68.05
2023-04-02T13:23:36.921Z,70.34
2023-04-02T13:29:00.254Z,71.07
2023-04-02T13:34:22.389Z,72.07
2023-04-02T13:39:44.053Z,74.51
2023-04-02T13:45:16.975Z,76.47
2023-04-02T13:50:38.906Z,78.81
2023-04-02T13:56:00.846Z,78.35
2023-04-02T14:01:24.559Z,79.57
2023-04-02T14:07:00.795Z,80.29
2023-04-02T14:12:48.671Z,82.14
2023-04-02T14:18:52.332Z,82.53
2023-04-02T14:24:49.544Z,84.72
2023-04-02T14:30:45.332Z,88.01
2023-04-02T14:36:28.717Z,84.91
2023-04-02T14:42:10.673Z,84.11
2023-04-02T14:47:44.836Z,83.73
2023-04-02T14:53:21.104Z,82.70
2023-04-02T14:58:46.783Z,83.25
2023-04-02T15:04:16.703Z,84.14
2023-04-02T15:09:45.519Z,84.41
2023-04-02T15:15:39.021Z,82.59
2023-04-02T15:21:09.399Z,83.09
2023-04-02T15:27:07.121Z,83.43
2023-04-02T15:32:34.050Z,86.12
2023-04-02T15:38:35.832Z,87.44
2023-04-02T15:44:08.112Z,87.78
2023-04-02T15:49:42.825Z,87.80
2023-04-02T15:55:23.574Z,86.34
2023-04-02T16:01:08.261Z,87.73
2023-04-02T16:07:01.543Z,86.23
2023-04-02T16:12:25.660Z,86.31
2023-04-02T16:17:53.651Z,85.46
2023-04-02T16:23:24.557Z,83.61
2023-04-02T16:28:56.815Z,83.36
2023-04-02T16:34:30.695Z,82.80
2023-04-02T16:40:17.332Z,81.66
2023-04-02T16:46:01.823Z,80.04
2023-04-02T16:51:31.820Z,79.22
2023-04-02T16:57:05.644Z,78.38
2023-04-02T17:02:46.035Z,78.22
2023-04-02T17:08:23.136Z,78.02
2023-04-02T17:13:50.391Z,77.93
2023-04-02T17:19:14.713Z,76.25
2023-04-02T17:24:44.284Z,76.24
2023-04-02T17:30:34.000Z,74.53
2023-04-02T17:35:59.717Z,74.11
2023-04-02T17:41:41.374Z,74.57
2023-04-02T17:47:14.898Z,75.57
2023-04-02T17:52:46.123Z,74.86
2023-04-02T17:58:23.647Z,73.54
2023-04-02T18:03:54.294Z,73.75
2023-04-02T18:09:37.173Z,73.38
2023-04-02T18:15:23.359Z,73.37
2023-04-02T18:20:53.823Z,73.26
2023-04-02T18:26:22.262Z,72.61
2023-04-02T18:31:53.731Z,73.17
2023-04-02T18:37:21.460Z,72.32
2023-04-02T18:43:07.015Z,71.48
2023-04-02T18:48:56.787Z,71.58
2023-04-02T18:54:41.778Z,72.32
2023-04-02T19:00:11.509Z,72.36
2023-04-02T19:05:44.668Z,70.85
2023-04-02T19:11:12.500Z,69.74
2023-04-02T19:16:43.157Z,70.33
2023-04-02T19:22:18.277Z,67.89
2023-04-02T19:27:51.339Z,66.94
2023-04-02T19:33:13.194Z,67.67
2023-04-02T19:38:53.845Z,67.60
2023-04-02T19:44:17.329Z,67.22
2023-04-02T19:49:39.082Z,65.93
2023-04-02T19:55:00.814Z,65.72
2023-04-02T20:00:22.512Z,65.58
2023-04-02T20:05:44.315Z,64.75
2023-04-02T20:11:06.901Z,65.90
2023-04-02T20:16:28.703Z,64.57
2023-04-02T20:21:50.509Z,64.43
2023-04-02T20:27:12.219Z,63.71
2023-04-02T20:32:37.223Z,63.73
2023-04-02T20:37:59.934Z,63.21
2023-04-02T20:43:22.495Z,62.30
2023-04-02T20:48:44.921Z,63.99
2023-04-02T20:54:06.734Z,63.88
2023-04-02T20:59:28.546Z,62.75
2023-04-02T21:04:50.358Z,62.93
2023-04-02T21:10:12.136Z,62.55
2023-04-02T21:15:34.134Z,62.27
2023-04-02T21:21:01.321Z,62.97
2023-04-02T21:26:23.478Z,63.33
2023-04-02T21:31:45.571Z,63.74
2023-04-02T21:37:07.366Z,63.22
2023-04-02T21:42:29.092Z,63.78
2023-04-02T21:47:50.943Z,62.88
2023-04-02T21:53:12.701Z,63.06
2023-04-02T21:58:34.710Z,62.57
2023-04-02T22:03:57.681Z,63.58
2023-04-02T22:09:22.757Z,63.26
2023-04-02T22:14:44.424Z,63.11
2023-04-02T22:20:06.651Z,63.17
2023-04-02T22:25:28.317Z,62.71
2023-04-02T22:30:50.262Z,62.59
2023-04-02T22:36:12.882Z,61.65
2023-04-02T22:41:35.405Z,61.98
2023-04-02T22:46:57.109Z,61.97
2023-04-02T22:52:18.813Z,61.94
2023-04-02T22:57:42.006Z,62.02
2023-04-02T23:03:04.196Z,61.30
2023-04-02T23:08:25.992Z,60.93
2023-04-02T23:13:50.268Z,62.08
2023-04-02T23:19:11.987Z,62.98
2023-04-02T23:24:33.689Z,62.23
2023-04-02T23:29:55.599Z,61.15
2023-04-02T23:35:17.274Z,61.67
2023-04-02T23:40:38.991Z,61.61
2023-04-02T23:46:00.991Z,61.47
2023-04-02T23:51:23.740Z,62.19
2023-04-02T23:56:45.539Z,62.12
